sensor_id;sensor_type;location;lat;lon;timestamp;P1;durP1;ratioP1;P2;durP2;ratioP2
70322;SDS011;57735;56.264;43.898;2023-04-25T00:01:37;72.63;;;12.73;;
70322;SDS011;57735;56.264;43.898;2023-04-25T00:04:10;22.33;;;8.07;;
70322;SDS011;57735;56.264;43.898;2023-04-25T00:06:41;26.88;;;9.95;;
70322;SDS011;57735;56.264;43.898;2023-04-25T00:09:12;29.25;;;8.90;;
70322;SDS011;57735;56.264;43.898;2023-04-25T00:11:43;26.45;;;7.47;;
70322;SDS011;57735;56.264;43.898;2023-04-25T00:14:16;19.95;;;6.55;;
70322;SDS011;57735;56.264;43.898;2023-04-25T00:16:50;21.15;;;7.32;;
70322;SDS011;57735;56.264;43.898;2023-04-25T00:19:22;20.05;;;6.20;;
70322;SDS011;57735;56.264;43.898;2023-04-25T00:21:52;16.80;;;6.70;;
70322;SDS011;57735;56.264;43.898;2023-04-25T00:24:23;14.52;;;5.97;;
70322;SDS011;57735;56.264;43.898;2023-04-25T00:26:54;22.25;;;7.65;;
70322;SDS011;57735;56.264;43.898;2023-04-25T00:29:25;16.63;;;7.13;;
70322;SDS011;57735;56.264;43.898;2023-04-25T00:31:55;13.13;;;5.43;;
70322;SDS011;57735;56.264;43.898;2023-04-25T00:34:29;13.80;;;5.75;;
70322;SDS011;57735;56.264;43.898;2023-04-25T00:37:00;18.38;;;5.90;;
70322;SDS011;57735;56.264;43.898;2023-04-25T00:39:36;11.52;;;4.50;;
70322;SDS011;57735;56.264;43.898;2023-04-25T00:42:07;10.50;;;4.50;;
70322;SDS011;57735;56.264;43.898;2023-04-25T00:44:38;11.27;;;4.40;;
70322;SDS011;57735;56.264;43.898;2023-04-25T00:47:10;13.60;;;5.00;;
70322;SDS011;57735;56.264;43.898;2023-04-25T00:49:44;12.77;;;4.70;;
70322;SDS011;57735;56.264;43.898;2023-04-25T00:52:15;10.48;;;4.40;;
70322;SDS011;57735;56.264;43.898;2023-04-25T00:54:46;12.13;;;4.80;;
70322;SDS011;57735;56.264;43.898;2023-04-25T00:57:20;15.35;;;5.13;;
70322;SDS011;57735;56.264;43.898;2023-04-25T00:59:51;12.75;;;5.25;;
70322;SDS011;57735;56.264;43.898;2023-04-25T01:04:57;14.80;;;4.80;;
70322;SDS011;57735;56.264;43.898;2023-04-25T01:07:27;13.40;;;5.07;;
70322;SDS011;57735;56.264;43.898;2023-04-25T01:09:58;9.93;;;4.68;;
70322;SDS011;57735;56.264;43.898;2023-04-25T01:12:29;10.68;;;5.50;;
70322;SDS011;57735;56.264;43.898;2023-04-25T01:15:01;11.45;;;5.38;;
70322;SDS011;57735;56.264;43.898;2023-04-25T01:17:34;13.65;;;5.55;;
70322;SDS011;57735;56.264;43.898;2023-04-25T01:20:05;17.13;;;5.68;;
70322;SDS011;57735;56.264;43.898;2023-04-25T01:22:37;13.57;;;5.55;;
70322;SDS011;57735;56.264;43.898;2023-04-25T01:25:08;19.73;;;5.82;;
70322;SDS011;57735;56.264;43.898;2023-04-25T01:27:40;21.63;;;6.65;;
70322;SDS011;57735;56.264;43.898;2023-04-25T01:30:11;19.17;;;7.35;;
70322;SDS011;57735;56.264;43.898;2023-04-25T01:32:41;23.67;;;6.60;;
70322;SDS011;57735;56.264;43.898;2023-04-25T01:35:15;22.92;;;7.85;;
70322;SDS011;57735;56.264;43.898;2023-04-25T01:37:48;15.80;;;6.13;;
70322;SDS011;57735;56.264;43.898;2023-04-25T01:40:20;30.35;;;7.32;;
70322;SDS011;57735;56.264;43.898;2023-04-25T01:42:52;20.20;;;6.47;;
70322;SDS011;57735;56.264;43.898;2023-04-25T01:45:23;18.02;;;5.80;;
70322;SDS011;57735;56.264;43.898;2023-04-25T01:47:54;17.10;;;5.57;;
70322;SDS011;57735;56.264;43.898;2023-04-25T01:50:29;18.02;;;5.80;;
70322;SDS011;57735;56.264;43.898;2023-04-25T01:53:00;13.95;;;5.15;;
70322;SDS011;57735;56.264;43.898;2023-04-25T01:55:32;20.58;;;5.32;;
70322;SDS011;57735;56.264;43.898;2023-04-25T01:58:04;11.48;;;4.15;;
70322;SDS011;57735;56.264;43.898;2023-04-25T02:03:11;10.52;;;3.65;;
70322;SDS011;57735;56.264;43.898;2023-04-25T02:05:41;8.82;;;4.40;;
70322;SDS011;57735;56.264;43.898;2023-04-25T02:08:13;11.35;;;4.40;;
70322;SDS011;57735;56.264;43.898;2023-04-25T02:10:43;11.13;;;4.10;;
70322;SDS011;57735;56.264;43.898;2023-04-25T02:13:14;12.30;;;4.65;;
70322;SDS011;57735;56.264;43.898;2023-04-25T02:15:45;12.02;;;3.95;;
70322;SDS011;57735;56.264;43.898;2023-04-25T02:18:35;6.47;;;3.60;;
70322;SDS011;57735;56.264;43.898;2023-04-25T02:21:07;10.02;;;4.32;;
70322;SDS011;57735;56.264;43.898;2023-04-25T02:23:38;12.25;;;4.18;;
70322;SDS011;57735;56.264;43.898;2023-04-25T02:26:09;9.00;;;4.30;;
70322;SDS011;57735;56.264;43.898;2023-04-25T02:28:41;9.32;;;3.85;;
70322;SDS011;57735;56.264;43.898;2023-04-25T02:31:12;8.90;;;4.25;;
70322;SDS011;57735;56.264;43.898;2023-04-25T02:33:45;7.13;;;3.63;;
70322;SDS011;57735;56.264;43.898;2023-04-25T02:36:16;8.05;;;3.97;;
70322;SDS011;57735;56.264;43.898;2023-04-25T02:38:47;12.07;;;4.13;;
70322;SDS011;57735;56.264;43.898;2023-04-25T02:41:27;12.25;;;4.55;;
70322;SDS011;57735;56.264;43.898;2023-04-25T02:43:58;14.40;;;4.15;;
70322;SDS011;57735;56.264;43.898;2023-04-25T02:46:28;11.15;;;4.03;;
70322;SDS011;57735;56.264;43.898;2023-04-25T02:48:59;10.05;;;4.18;;
70322;SDS011;57735;56.264;43.898;2023-04-25T02:51:30;6.75;;;3.60;;
70322;SDS011;57735;56.264;43.898;2023-04-25T02:54:01;7.35;;;3.42;;
70322;SDS011;57735;56.264;43.898;2023-04-25T02:56:34;16.20;;;4.18;;
70322;SDS011;57735;56.264;43.898;2023-04-25T02:59:07;8.55;;;3.60;;
70322;SDS011;57735;56.264;43.898;2023-04-25T03:01:38;11.60;;;3.80;;
70322;SDS011;57735;56.264;43.898;2023-04-25T03:04:08;11.95;;;3.92;;
70322;SDS011;57735;56.264;43.898;2023-04-25T03:06:39;7.63;;;3.60;;
70322;SDS011;57735;56.264;43.898;2023-04-25T03:09:10;13.65;;;4.15;;
70322;SDS011;57735;56.264;43.898;2023-04-25T03:11:41;14.13;;;3.50;;
70322;SDS011;57735;56.264;43.898;2023-04-25T03:14:12;10.88;;;4.10;;
70322;SDS011;57735;56.264;43.898;2023-04-25T03:16:43;10.18;;;4.30;;
70322;SDS011;57735;56.264;43.898;2023-04-25T03:19:14;14.57;;;4.38;;
70322;SDS011;57735;56.264;43.898;2023-04-25T03:21:47;15.00;;;4.60;;
70322;SDS011;57735;56.264;43.898;2023-04-25T03:24:18;13.38;;;5.20;;
70322;SDS011;57735;56.264;43.898;2023-04-25T03:26:48;17.45;;;5.07;;
70322;SDS011;57735;56.264;43.898;2023-04-25T03:29:19;13.27;;;4.75;;
70322;SDS011;57735;56.264;43.898;2023-04-25T03:31:54;12.32;;;4.45;;
70322;SDS011;57735;56.264;43.898;2023-04-25T03:34:25;18.60;;;6.47;;
70322;SDS011;57735;56.264;43.898;2023-04-25T03:37:01;19.57;;;6.83;;
70322;SDS011;57735;56.264;43.898;2023-04-25T03:39:32;24.35;;;7.03;;
70322;SDS011;57735;56.264;43.898;2023-04-25T03:42:02;24.88;;;7.28;;
70322;SDS011;57735;56.264;43.898;2023-04-25T03:44:33;20.10;;;6.57;;
70322;SDS011;57735;56.264;43.898;2023-04-25T03:47:04;15.82;;;5.13;;
70322;SDS011;57735;56.264;43.898;2023-04-25T03:49:35;14.20;;;4.80;;
70322;SDS011;57735;56.264;43.898;2023-04-25T03:52:08;13.68;;;4.65;;
70322;SDS011;57735;56.264;43.898;2023-04-25T03:54:39;15.25;;;4.88;;
70322;SDS011;57735;56.264;43.898;2023-04-25T03:57:09;20.70;;;8.48;;
70322;SDS011;57735;56.264;43.898;2023-04-25T03:59:40;31.20;;;13.57;;
70322;SDS011;57735;56.264;43.898;2023-04-25T04:02:11;40.95;;;17.30;;
70322;SDS011;57735;56.264;43.898;2023-04-25T04:04:42;55.90;;;21.70;;
70322;SDS011;57735;56.264;43.898;2023-04-25T04:07:14;50.03;;;20.05;;
70322;SDS011;57735;56.264;43.898;2023-04-25T04:09:45;33.15;;;14.93;;
70322;SDS011;57735;56.264;43.898;2023-04-25T04:12:15;35.00;;;13.20;;
70322;SDS011;57735;56.264;43.898;2023-04-25T04:14:46;46.83;;;16.13;;
70322;SDS011;57735;56.264;43.898;2023-04-25T04:17:17;42.33;;;14.55;;
70322;SDS011;57735;56.264;43.898;2023-04-25T04:19:50;43.28;;;13.45;;
70322;SDS011;57735;56.264;43.898;2023-04-25T04:22:21;54.35;;;16.15;;
70322;SDS011;57735;56.264;43.898;2023-04-25T04:24:53;44.20;;;17.55;;
70322;SDS011;57735;56.264;43.898;2023-04-25T04:27:24;51.40;;;19.17;;
70322;SDS011;57735;56.264;43.898;2023-04-25T04:29:55;62.42;;;21.20;;
70322;SDS011;57735;56.264;43.898;2023-04-25T04:32:26;51.40;;;17.30;;
70322;SDS011;57735;56.264;43.898;2023-04-25T04:35:00;59.92;;;16.88;;
70322;SDS011;57735;56.264;43.898;2023-04-25T04:37:30;37.88;;;15.68;;
70322;SDS011;57735;56.264;43.898;2023-04-25T04:40:01;45.47;;;16.23;;
70322;SDS011;57735;56.264;43.898;2023-04-25T04:42:35;37.00;;;15.25;;
70322;SDS011;57735;56.264;43.898;2023-04-25T04:45:06;27.13;;;10.27;;
70322;SDS011;57735;56.264;43.898;2023-04-25T04:47:37;34.45;;;13.38;;
70322;SDS011;57735;56.264;43.898;2023-04-25T04:50:09;12.10;;;5.88;;
70322;SDS011;57735;56.264;43.898;2023-04-25T04:52:40;14.32;;;5.50;;
70322;SDS011;57735;56.264;43.898;2023-04-25T04:55:12;18.27;;;5.03;;
70322;SDS011;57735;56.264;43.898;2023-04-25T04:57:42;18.13;;;5.22;;
70322;SDS011;57735;56.264;43.898;2023-04-25T05:00:13;10.95;;;4.75;;
70322;SDS011;57735;56.264;43.898;2023-04-25T05:02:47;18.10;;;4.65;;
70322;SDS011;57735;56.264;43.898;2023-04-25T05:05:18;13.15;;;4.50;;
70322;SDS011;57735;56.264;43.898;2023-04-25T05:07:52;10.38;;;4.13;;
70322;SDS011;57735;56.264;43.898;2023-04-25T05:10:28;13.43;;;3.55;;
70322;SDS011;57735;56.264;43.898;2023-04-25T05:12:59;12.38;;;4.10;;
70322;SDS011;57735;56.264;43.898;2023-04-25T05:15:30;8.63;;;3.95;;
70322;SDS011;57735;56.264;43.898;2023-04-25T05:18:01;9.40;;;3.15;;
70322;SDS011;57735;56.264;43.898;2023-04-25T05:20:32;8.07;;;3.63;;
70322;SDS011;57735;56.264;43.898;2023-04-25T05:23:02;14.07;;;4.07;;
70322;SDS011;57735;56.264;43.898;2023-04-25T05:25:35;16.40;;;4.65;;
70322;SDS011;57735;56.264;43.898;2023-04-25T05:28:05;16.95;;;4.82;;
70322;SDS011;57735;56.264;43.898;2023-04-25T05:30:37;15.88;;;5.38;;
70322;SDS011;57735;56.264;43.898;2023-04-25T05:33:07;14.43;;;5.32;;
70322;SDS011;57735;56.264;43.898;2023-04-25T05:35:39;15.93;;;5.07;;
70322;SDS011;57735;56.264;43.898;2023-04-25T05:38:10;11.70;;;3.90;;
70322;SDS011;57735;56.264;43.898;2023-04-25T05:40:41;11.07;;;3.55;;
70322;SDS011;57735;56.264;43.898;2023-04-25T05:43:12;10.32;;;3.88;;
70322;SDS011;57735;56.264;43.898;2023-04-25T05:45:45;13.35;;;3.75;;
70322;SDS011;57735;56.264;43.898;2023-04-25T05:48:18;16.48;;;4.20;;
70322;SDS011;57735;56.264;43.898;2023-04-25T05:50:48;12.00;;;4.38;;
70322;SDS011;57735;56.264;43.898;2023-04-25T05:53:19;8.88;;;2.70;;
70322;SDS011;57735;56.264;43.898;2023-04-25T05:55:50;11.20;;;3.70;;
70322;SDS011;57735;56.264;43.898;2023-04-25T05:58:21;13.35;;;4.40;;
70322;SDS011;57735;56.264;43.898;2023-04-25T06:00:52;6.03;;;2.70;;
70322;SDS011;57735;56.264;43.898;2023-04-25T06:03:25;7.35;;;2.83;;
70322;SDS011;57735;56.264;43.898;2023-04-25T06:05:56;7.10;;;3.40;;
70322;SDS011;57735;56.264;43.898;2023-04-25T06:08:26;5.82;;;2.42;;
70322;SDS011;57735;56.264;43.898;2023-04-25T06:10:57;13.55;;;3.05;;
70322;SDS011;57735;56.264;43.898;2023-04-25T06:13:28;7.00;;;2.92;;
70322;SDS011;57735;56.264;43.898;2023-04-25T06:16:01;8.07;;;2.60;;
70322;SDS011;57735;56.264;43.898;2023-04-25T06:18:32;7.00;;;2.90;;
70322;SDS011;57735;56.264;43.898;2023-04-25T06:21:05;9.80;;;2.38;;
70322;SDS011;57735;56.264;43.898;2023-04-25T06:23:36;4.85;;;2.22;;
70322;SDS011;57735;56.264;43.898;2023-04-25T06:26:10;11.68;;;1.80;;
70322;SDS011;57735;56.264;43.898;2023-04-25T06:28:41;8.30;;;2.28;;
70322;SDS011;57735;56.264;43.898;2023-04-25T06:31:14;6.90;;;2.20;;
70322;SDS011;57735;56.264;43.898;2023-04-25T06:33:45;7.20;;;2.88;;
70322;SDS011;57735;56.264;43.898;2023-04-25T06:36:16;8.38;;;2.50;;
70322;SDS011;57735;56.264;43.898;2023-04-25T06:38:46;7.40;;;2.50;;
70322;SDS011;57735;56.264;43.898;2023-04-25T06:41:17;13.32;;;2.95;;
70322;SDS011;57735;56.264;43.898;2023-04-25T06:43:52;12.68;;;2.38;;
70322;SDS011;57735;56.264;43.898;2023-04-25T06:46:22;4.20;;;2.23;;
70322;SDS011;57735;56.264;43.898;2023-04-25T06:48:53;7.57;;;2.63;;
70322;SDS011;57735;56.264;43.898;2023-04-25T06:51:24;8.95;;;2.22;;
70322;SDS011;57735;56.264;43.898;2023-04-25T06:53:58;11.70;;;2.30;;
70322;SDS011;57735;56.264;43.898;2023-04-25T06:56:31;6.63;;;2.08;;
70322;SDS011;57735;56.264;43.898;2023-04-25T06:59:02;14.80;;;1.90;;
70322;SDS011;57735;56.264;43.898;2023-04-25T07:01:33;3.50;;;2.03;;
70322;SDS011;57735;56.264;43.898;2023-04-25T07:04:03;9.95;;;2.35;;
70322;SDS011;57735;56.264;43.898;2023-04-25T07:06:37;4.93;;;1.75;;
70322;SDS011;57735;56.264;43.898;2023-04-25T07:09:12;5.18;;;2.05;;
70322;SDS011;57735;56.264;43.898;2023-04-25T07:11:43;5.90;;;1.80;;
70322;SDS011;57735;56.264;43.898;2023-04-25T07:14:14;11.63;;;2.33;;
70322;SDS011;57735;56.264;43.898;2023-04-25T07:16:45;6.32;;;2.70;;
70322;SDS011;57735;56.264;43.898;2023-04-25T07:19:16;6.35;;;1.92;;
70322;SDS011;57735;56.264;43.898;2023-04-25T07:21:46;17.17;;;2.42;;
70322;SDS011;57735;56.264;43.898;2023-04-25T07:24:17;102.18;;;6.82;;
70322;SDS011;57735;56.264;43.898;2023-04-25T07:26:48;26.00;;;2.70;;
70322;SDS011;57735;56.264;43.898;2023-04-25T07:29:27;19.15;;;2.10;;
70322;SDS011;57735;56.264;43.898;2023-04-25T07:31:58;26.55;;;3.03;;
70322;SDS011;57735;56.264;43.898;2023-04-25T07:34:28;10.75;;;2.00;;
70322;SDS011;57735;56.264;43.898;2023-04-25T07:37:02;9.82;;;2.10;;
70322;SDS011;57735;56.264;43.898;2023-04-25T07:39:33;7.18;;;3.78;;
70322;SDS011;57735;56.264;43.898;2023-04-25T07:42:03;3.75;;;2.25;;
70322;SDS011;57735;56.264;43.898;2023-04-25T07:44:36;8.18;;;2.20;;
70322;SDS011;57735;56.264;43.898;2023-04-25T07:47:09;7.68;;;2.20;;
70322;SDS011;57735;56.264;43.898;2023-04-25T07:49:40;5.25;;;1.75;;
70322;SDS011;57735;56.264;43.898;2023-04-25T07:52:11;5.80;;;1.70;;
70322;SDS011;57735;56.264;43.898;2023-04-25T07:54:42;19.65;;;2.28;;
70322;SDS011;57735;56.264;43.898;2023-04-25T07:57:12;7.78;;;1.60;;
70322;SDS011;57735;56.264;43.898;2023-04-25T07:59:44;16.23;;;2.42;;
70322;SDS011;57735;56.264;43.898;2023-04-25T08:02:14;16.83;;;2.10;;
70322;SDS011;57735;56.264;43.898;2023-04-25T08:04:45;4.22;;;1.50;;
70322;SDS011;57735;56.264;43.898;2023-04-25T08:07:16;4.47;;;1.90;;
70322;SDS011;57735;56.264;43.898;2023-04-25T08:09:47;11.93;;;5.03;;
70322;SDS011;57735;56.264;43.898;2023-04-25T08:12:18;12.57;;;4.45;;
70322;SDS011;57735;56.264;43.898;2023-04-25T08:14:51;14.52;;;4.65;;
70322;SDS011;57735;56.264;43.898;2023-04-25T08:17:22;12.55;;;3.90;;
70322;SDS011;57735;56.264;43.898;2023-04-25T08:19:53;9.85;;;2.75;;
70322;SDS011;57735;56.264;43.898;2023-04-25T08:22:23;12.30;;;3.25;;
70322;SDS011;57735;56.264;43.898;2023-04-25T08:24:54;6.70;;;1.80;;
70322;SDS011;57735;56.264;43.898;2023-04-25T08:27:25;9.07;;;2.75;;
70322;SDS011;57735;56.264;43.898;2023-04-25T08:29:56;12.85;;;2.13;;
70322;SDS011;57735;56.264;43.898;2023-04-25T08:32:28;8.65;;;2.05;;
70322;SDS011;57735;56.264;43.898;2023-04-25T08:34:58;7.72;;;2.70;;
70322;SDS011;57735;56.264;43.898;2023-04-25T08:37:29;77.65;;;8.63;;
70322;SDS011;57735;56.264;43.898;2023-04-25T08:40:00;16.90;;;3.58;;
70322;SDS011;57735;56.264;43.898;2023-04-25T08:42:31;5.57;;;2.13;;
70322;SDS011;57735;56.264;43.898;2023-04-25T08:45:03;13.32;;;2.50;;
70322;SDS011;57735;56.264;43.898;2023-04-25T08:47:35;22.73;;;4.30;;
70322;SDS011;57735;56.264;43.898;2023-04-25T08:50:08;18.60;;;3.08;;
70322;SDS011;57735;56.264;43.898;2023-04-25T08:52:43;3.85;;;2.08;;
70322;SDS011;57735;56.264;43.898;2023-04-25T08:55:16;13.05;;;4.65;;
70322;SDS011;57735;56.264;43.898;2023-04-25T08:57:47;15.50;;;4.28;;
70322;SDS011;57735;56.264;43.898;2023-04-25T09:00:21;15.15;;;3.92;;
70322;SDS011;57735;56.264;43.898;2023-04-25T09:02:53;11.15;;;4.18;;
70322;SDS011;57735;56.264;43.898;2023-04-25T09:05:27;14.18;;;3.20;;
70322;SDS011;57735;56.264;43.898;2023-04-25T09:07:58;23.93;;;7.03;;
70322;SDS011;57735;56.264;43.898;2023-04-25T09:10:30;18.40;;;4.78;;
70322;SDS011;57735;56.264;43.898;2023-04-25T09:13:05;49.00;;;7.07;;
70322;SDS011;57735;56.264;43.898;2023-04-25T09:15:51;11.68;;;3.10;;
70322;SDS011;57735;56.264;43.898;2023-04-25T09:18:27;16.00;;;3.08;;
70322;SDS011;57735;56.264;43.898;2023-04-25T09:21:07;15.05;;;3.50;;
70322;SDS011;57735;56.264;43.898;2023-04-25T09:23:40;25.80;;;6.57;;
70322;SDS011;57735;56.264;43.898;2023-04-25T09:26:17;16.55;;;4.25;;
70322;SDS011;57735;56.264;43.898;2023-04-25T09:28:50;27.88;;;3.45;;
70322;SDS011;57735;56.264;43.898;2023-04-25T09:31:37;21.92;;;5.82;;
70322;SDS011;57735;56.264;43.898;2023-04-25T09:34:08;33.10;;;13.50;;
70322;SDS011;57735;56.264;43.898;2023-04-25T09:36:42;35.42;;;13.15;;
70322;SDS011;57735;56.264;43.898;2023-04-25T09:39:12;14.10;;;3.60;;
70322;SDS011;57735;56.264;43.898;2023-04-25T09:41:46;19.55;;;5.10;;
70322;SDS011;57735;56.264;43.898;2023-04-25T09:44:21;25.67;;;4.18;;
70322;SDS011;57735;56.264;43.898;2023-04-25T09:46:54;23.70;;;5.22;;
70322;SDS011;57735;56.264;43.898;2023-04-25T09:49:25;5.57;;;2.97;;
70322;SDS011;57735;56.264;43.898;2023-04-25T09:51:59;11.55;;;2.72;;
70322;SDS011;57735;56.264;43.898;2023-04-25T09:54:32;20.48;;;4.68;;
70322;SDS011;57735;56.264;43.898;2023-04-25T09:57:10;15.57;;;6.10;;
70322;SDS011;57735;56.264;43.898;2023-04-25T09:59:43;26.10;;;11.82;;
70322;SDS011;57735;56.264;43.898;2023-04-25T10:02:20;26.58;;;10.77;;
70322;SDS011;57735;56.264;43.898;2023-04-25T10:05:01;32.65;;;10.98;;
70322;SDS011;57735;56.264;43.898;2023-04-25T10:07:38;26.02;;;9.27;;
70322;SDS011;57735;56.264;43.898;2023-04-25T10:10:10;31.92;;;14.40;;
70322;SDS011;57735;56.264;43.898;2023-04-25T10:12:43;36.50;;;20.63;;
70322;SDS011;57735;56.264;43.898;2023-04-25T10:15:15;41.80;;;19.55;;
70322;SDS011;57735;56.264;43.898;2023-04-25T10:17:46;39.78;;;21.13;;
70322;SDS011;57735;56.264;43.898;2023-04-25T10:20:21;22.08;;;12.40;;
70322;SDS011;57735;56.264;43.898;2023-04-25T10:22:53;17.23;;;7.90;;
70322;SDS011;57735;56.264;43.898;2023-04-25T10:25:26;16.08;;;5.25;;
70322;SDS011;57735;56.264;43.898;2023-04-25T10:27:57;9.35;;;3.00;;
70322;SDS011;57735;56.264;43.898;2023-04-25T10:30:32;19.38;;;2.53;;
70322;SDS011;57735;56.264;43.898;2023-04-25T10:33:03;11.23;;;2.20;;
70322;SDS011;57735;56.264;43.898;2023-04-25T10:35:47;50.17;;;4.75;;
70322;SDS011;57735;56.264;43.898;2023-04-25T10:38:19;8.60;;;2.13;;
70322;SDS011;57735;56.264;43.898;2023-04-25T10:41:02;14.10;;;2.83;;
70322;SDS011;57735;56.264;43.898;2023-04-25T10:43:42;9.20;;;2.60;;
70322;SDS011;57735;56.264;43.898;2023-04-25T10:46:24;21.33;;;2.88;;
70322;SDS011;57735;56.264;43.898;2023-04-25T10:49:01;19.50;;;2.90;;
70322;SDS011;57735;56.264;43.898;2023-04-25T10:51:33;9.10;;;2.55;;
70322;SDS011;57735;56.264;43.898;2023-04-25T10:54:06;15.43;;;5.05;;
70322;SDS011;57735;56.264;43.898;2023-04-25T10:56:39;14.73;;;4.60;;
70322;SDS011;57735;56.264;43.898;2023-04-25T10:59:17;12.90;;;4.70;;
70322;SDS011;57735;56.264;43.898;2023-04-25T11:01:51;9.27;;;3.60;;
70322;SDS011;57735;56.264;43.898;2023-04-25T11:04:32;38.72;;;7.22;;
70322;SDS011;57735;56.264;43.898;2023-04-25T11:10:07;11.93;;;4.47;;
70322;SDS011;57735;56.264;43.898;2023-04-25T11:12:38;25.60;;;3.20;;
70322;SDS011;57735;56.264;43.898;2023-04-25T11:15:09;12.48;;;2.47;;
70322;SDS011;57735;56.264;43.898;2023-04-25T11:17:40;191.35;;;13.60;;
70322;SDS011;57735;56.264;43.898;2023-04-25T11:20:16;106.35;;;6.80;;
70322;SDS011;57735;56.264;43.898;2023-04-25T11:22:47;15.88;;;2.90;;
70322;SDS011;57735;56.264;43.898;2023-04-25T11:25:18;6.80;;;1.92;;
70322;SDS011;57735;56.264;43.898;2023-04-25T11:27:52;10.25;;;2.85;;
70322;SDS011;57735;56.264;43.898;2023-04-25T11:30:25;14.13;;;2.58;;
70322;SDS011;57735;56.264;43.898;2023-04-25T11:32:56;10.27;;;2.92;;
70322;SDS011;57735;56.264;43.898;2023-04-25T11:35:27;10.88;;;2.28;;
70322;SDS011;57735;56.264;43.898;2023-04-25T11:37:58;19.48;;;2.70;;
70322;SDS011;57735;56.264;43.898;2023-04-25T11:40:29;23.65;;;3.30;;
70322;SDS011;57735;56.264;43.898;2023-04-25T11:43:03;32.70;;;6.32;;
70322;SDS011;57735;56.264;43.898;2023-04-25T11:45:36;34.75;;;8.38;;
70322;SDS011;57735;56.264;43.898;2023-04-25T11:48:07;19.35;;;4.63;;
70322;SDS011;57735;56.264;43.898;2023-04-25T11:50:39;15.43;;;3.10;;
70322;SDS011;57735;56.264;43.898;2023-04-25T11:53:10;30.10;;;3.53;;
70322;SDS011;57735;56.264;43.898;2023-04-25T11:55:43;21.58;;;6.10;;
70322;SDS011;57735;56.264;43.898;2023-04-25T11:58:14;20.53;;;6.73;;
70322;SDS011;57735;56.264;43.898;2023-04-25T12:00:49;30.95;;;7.72;;
70322;SDS011;57735;56.264;43.898;2023-04-25T12:03:20;47.85;;;10.88;;
70322;SDS011;57735;56.264;43.898;2023-04-25T12:05:54;30.35;;;14.60;;
70322;SDS011;57735;56.264;43.898;2023-04-25T12:08:35;56.53;;;14.63;;
70322;SDS011;57735;56.264;43.898;2023-04-25T12:11:06;30.33;;;5.68;;
70322;SDS011;57735;56.264;43.898;2023-04-25T12:13:51;22.67;;;3.70;;
70322;SDS011;57735;56.264;43.898;2023-04-25T12:16:23;47.25;;;6.07;;
70322;SDS011;57735;56.264;43.898;2023-04-25T12:18:55;39.05;;;4.15;;
70322;SDS011;57735;56.264;43.898;2023-04-25T12:21:28;92.95;;;8.48;;
70322;SDS011;57735;56.264;43.898;2023-04-25T12:24:12;17.30;;;4.57;;
70322;SDS011;57735;56.264;43.898;2023-04-25T12:26:48;15.13;;;5.75;;
70322;SDS011;57735;56.264;43.898;2023-04-25T12:29:24;32.70;;;4.75;;
70322;SDS011;57735;56.264;43.898;2023-04-25T12:31:56;13.10;;;2.75;;
70322;SDS011;57735;56.264;43.898;2023-04-25T12:34:27;28.83;;;4.55;;
70322;SDS011;57735;56.264;43.898;2023-04-25T12:36:58;15.68;;;3.45;;
70322;SDS011;57735;56.264;43.898;2023-04-25T12:39:29;11.93;;;2.53;;
70322;SDS011;57735;56.264;43.898;2023-04-25T12:41:59;10.75;;;2.53;;
70322;SDS011;57735;56.264;43.898;2023-04-25T12:44:31;21.70;;;2.80;;
70322;SDS011;57735;56.264;43.898;2023-04-25T12:47:01;12.57;;;2.72;;
70322;SDS011;57735;56.264;43.898;2023-04-25T12:49:35;18.52;;;2.67;;
70322;SDS011;57735;56.264;43.898;2023-04-25T12:52:06;12.45;;;2.20;;
70322;SDS011;57735;56.264;43.898;2023-04-25T12:54:39;20.67;;;2.03;;
70322;SDS011;57735;56.264;43.898;2023-04-25T12:57:12;20.20;;;2.13;;
70322;SDS011;57735;56.264;43.898;2023-04-25T12:59:43;13.43;;;2.67;;
70322;SDS011;57735;56.264;43.898;2023-04-25T13:02:14;20.25;;;2.25;;
70322;SDS011;57735;56.264;43.898;2023-04-25T13:04:45;37.80;;;4.00;;
70322;SDS011;57735;56.264;43.898;2023-04-25T13:07:15;33.42;;;3.28;;
70322;SDS011;57735;56.264;43.898;2023-04-25T13:09:46;32.67;;;3.03;;
70322;SDS011;57735;56.264;43.898;2023-04-25T13:12:17;79.65;;;7.25;;
70322;SDS011;57735;56.264;43.898;2023-04-25T13:14:50;13.55;;;3.33;;
70322;SDS011;57735;56.264;43.898;2023-04-25T13:17:21;12.30;;;2.17;;
70322;SDS011;57735;56.264;43.898;2023-04-25T13:19:54;8.30;;;2.47;;
70322;SDS011;57735;56.264;43.898;2023-04-25T13:22:25;9.95;;;2.30;;
70322;SDS011;57735;56.264;43.898;2023-04-25T13:24:56;9.02;;;2.22;;
70322;SDS011;57735;56.264;43.898;2023-04-25T13:27:26;7.28;;;2.10;;
70322;SDS011;57735;56.264;43.898;2023-04-25T13:29:57;8.45;;;1.98;;
70322;SDS011;57735;56.264;43.898;2023-04-25T13:32:31;5.50;;;2.85;;
70322;SDS011;57735;56.264;43.898;2023-04-25T13:35:05;3.83;;;1.92;;
70322;SDS011;57735;56.264;43.898;2023-04-25T13:37:38;9.98;;;2.80;;
70322;SDS011;57735;56.264;43.898;2023-04-25T13:40:09;7.55;;;2.35;;
70322;SDS011;57735;56.264;43.898;2023-04-25T13:42:41;5.03;;;2.15;;
70322;SDS011;57735;56.264;43.898;2023-04-25T13:45:14;4.90;;;1.60;;
70322;SDS011;57735;56.264;43.898;2023-04-25T13:47:45;4.18;;;2.03;;
70322;SDS011;57735;56.264;43.898;2023-04-25T13:50:16;6.82;;;1.85;;
70322;SDS011;57735;56.264;43.898;2023-04-25T13:52:46;3.97;;;2.30;;
70322;SDS011;57735;56.264;43.898;2023-04-25T13:55:17;8.63;;;2.53;;
70322;SDS011;57735;56.264;43.898;2023-04-25T13:57:48;6.50;;;2.65;;
70322;SDS011;57735;56.264;43.898;2023-04-25T14:00:19;5.25;;;2.50;;
70322;SDS011;57735;56.264;43.898;2023-04-25T14:02:51;4.15;;;2.75;;
70322;SDS011;57735;56.264;43.898;2023-04-25T14:05:21;6.10;;;2.70;;
70322;SDS011;57735;56.264;43.898;2023-04-25T14:07:53;5.18;;;2.80;;
70322;SDS011;57735;56.264;43.898;2023-04-25T14:10:31;6.53;;;3.00;;
70322;SDS011;57735;56.264;43.898;2023-04-25T14:13:02;9.95;;;3.60;;
70322;SDS011;57735;56.264;43.898;2023-04-25T14:15:33;8.30;;;4.05;;
70322;SDS011;57735;56.264;43.898;2023-04-25T14:18:04;12.25;;;4.78;;
70322;SDS011;57735;56.264;43.898;2023-04-25T14:20:37;8.20;;;4.25;;
70322;SDS011;57735;56.264;43.898;2023-04-25T14:23:11;9.02;;;4.05;;
70322;SDS011;57735;56.264;43.898;2023-04-25T14:25:41;11.52;;;4.32;;
70322;SDS011;57735;56.264;43.898;2023-04-25T14:28:12;9.07;;;4.55;;
70322;SDS011;57735;56.264;43.898;2023-04-25T14:30:46;13.60;;;6.05;;
70322;SDS011;57735;56.264;43.898;2023-04-25T14:33:17;12.77;;;4.57;;
70322;SDS011;57735;56.264;43.898;2023-04-25T14:35:48;7.35;;;4.30;;
70322;SDS011;57735;56.264;43.898;2023-04-25T14:38:18;10.80;;;4.05;;
70322;SDS011;57735;56.264;43.898;2023-04-25T14:40:53;12.52;;;3.72;;
70322;SDS011;57735;56.264;43.898;2023-04-25T14:43:25;10.80;;;4.38;;
70322;SDS011;57735;56.264;43.898;2023-04-25T14:45:55;11.10;;;3.95;;
70322;SDS011;57735;56.264;43.898;2023-04-25T14:48:26;11.32;;;4.45;;
70322;SDS011;57735;56.264;43.898;2023-04-25T14:50:57;14.05;;;4.95;;
70322;SDS011;57735;56.264;43.898;2023-04-25T14:53:28;10.00;;;4.40;;
70322;SDS011;57735;56.264;43.898;2023-04-25T14:55:58;10.18;;;4.32;;
70322;SDS011;57735;56.264;43.898;2023-04-25T14:58:30;5.97;;;3.55;;
70322;SDS011;57735;56.264;43.898;2023-04-25T15:01:01;9.77;;;4.80;;